PST,Max TemperatureF,Mean TemperatureF,Min TemperatureF,Max Dew PointF,MeanDew PointF,Min DewpointF,Max Humidity, Mean Humidity, Min Humidity, Max Sea Level PressureIn, Mean Sea Level PressureIn, Min Sea Level PressureIn, Max VisibilityMiles, Mean VisibilityMiles, Min VisibilityMiles, Max Wind SpeedMPH, Mean Wind SpeedMPH, Max Gust SpeedMPH,PrecipitationIn, CloudCover, Events, WindDirDegrees
2013-12-1,77,65,53,53,43,31,80,53,23,30.18,30.13,30.08,10,10,10,8,3,,0.00,0,,11
2013-12-2,71,62,53,40,33,28,53,37,21,30.08,30.00,29.91,10,10,10,7,3,,0.00,0,,36
2013-12-3,61,54,48,55,48,34,89,73,47,29.90,29.82,29.78,10,10,6,17,5,23,0.00,6,Rain,167
2013-12-4,59,54,50,48,39,35,72,57,42,29.96,29.90,29.80,10,10,10,14,8,21,0.00,4,,234
2013-12-5,57,52,45,39,36,34,71,56,44,30.10,30.01,29.94,10,10,10,13,4,16,0.00,3,,156
2013-12-6,57,52,46,38,36,35,64,56,44,30.18,30.12,30.10,10,10,10,13,6,21,0.00,3,,142
2013-12-7,57,52,48,52,44,36,94,72,52,30.12,30.06,30.02,10,8,2,16,6,24,0.17,6,Rain,229
2013-12-8,54,50,45,40,37,36,80,65,51,30.18,30.13,30.10,10,10,10,10,4,,0.00,3,,120
2013-12-9,61,50,39,35,20,5,74,37,13,30.26,30.22,30.16,10,10,9,12,4,,0.00,0,,50
2013-12-10,64,52,41,36,20,3,54,32,9,30.23,30.14,30.08,10,10,10,9,2,,0.00,0,,350
2013-12-11,68,58,48,46,31,13,64,42,12,30.15,30.12,30.07,10,10,10,9,2,,0.00,0,,116
2013-12-12,66,56,46,51,40,17,83,62,15,30.20,30.17,30.14,10,10,6,9,3,,0.00,0,,166
2013-12-13,61,52,42,49,41,31,89,70,48,30.22,30.17,30.13,10,9,4,8,3,,0.00,0,,88
2013-12-14,70,56,42,47,34,22,86,49,17,30.26,30.21,30.16,10,9,5,7,2,,0.00,0,,15
2013-12-15,70,59,48,39,26,19,44,30,15,30.20,30.13,30.06,10,10,10,6,2,,0.00,0,,68
2013-12-16,80,68,55,42,33,25,57,32,17,30.11,30.07,30.04,10,10,10,9,2,,0.00,0,,70
2013-12-17,75,65,55,50,39,31,75,43,27,30.11,30.05,30.00,10,10,10,6,2,,0.00,0,,110
2013-12-18,68,62,55,56,49,38,94,72,44,30.00,29.92,29.87,10,10,8,9,3,,0.00,3,,182
2013-12-19,55,50,45,50,47,42,93,80,67,29.86,29.79,29.72,10,9,2,12,6,,0.12,7,Rain,195
2013-12-20,59,51,43,49,45,41,93,80,58,29.95,29.85,29.77,10,10,9,8,2,,0.01,0,,137
2013-12-21,59,52,46,47,46,43,90,77,62,30.07,29.97,29.92,10,10,9,10,4,,0.00,2,,127
2013-12-22,64,54,45,52,46,40,90,74,48,30.24,30.16,30.07,10,9,2,7,2,,0.01,0,,326
2013-12-23,72,60,48,47,39,34,68,51,26,30.27,30.22,30.17,10,10,10,9,2,,0.00,0,,338
2013-12-24,71,60,48,37,34,31,54,41,24,30.18,30.13,30.06,10,10,10,8,1,,0.00,0,,290
2013-12-25,80,66,52,41,29,21,44,29,12,30.16,30.12,30.06,10,10,10,9,4,,0.00,0,,25
2013-12-26,79,66,52,39,22,6,37,23,6,30.14,30.10,30.05,10,10,10,12,2,,0.00,0,,8
2013-12-27,73,60,48,35,23,14,33,24,12,30.12,30.08,30.04,10,10,10,7,2,,0.00,0,,53
2013-12-28,71,60,48,55,37,19,94,53,16,30.03,29.98,29.93,10,10,8,8,3,,0.00,0,,150
2013-12-29,66,54,42,51,38,23,83,57,30,30.13,30.05,29.99,10,10,9,7,2,,0.00,0,,277
2013-12-30,71,58,45,35,21,9,47,28,9,30.24,30.19,30.13,10,10,10,7,2,,0.00,0,,327
2013-12-31,64,54,45,54,35,20,94,56,19,30.19,30.13,30.09,10,9,4,6,2,,0.00,0,,58